Time;durP1;ratioP1;P1;durP2;ratioP2;P2;SDS_P1;SDS_P2;PMS_P1;PMS_P2;Temp;Humidity;BMP_temperature;BMP_pressure;BME280_temperature;BME280_humidity;BME280_pressure;Samples;Min_cycle;Max_cycle;Signal;HPM_P1;HPM_P2
2023/10/22 00:02:16;;;;;;;9.13;5.27;;;15.00;99.90;;;;;;5075605;28;20648;-78
2023/10/22 00:04:41;;;;;;;5.93;5.00;;;14.90;99.90;;;;;;5094251;28;20214;-78
2023/10/22 00:07:07;;;;;;;5.67;5.07;;;14.90;99.90;;;;;;5094007;28;20175;-80
2023/10/22 00:09:33;;;;;;;5.97;4.67;;;14.80;99.90;;;;;;5093770;28;20204;-79
2023/10/22 00:11:59;;;;;;;6.20;4.67;;;14.90;99.90;;;;;;5094963;28;20173;-78
2023/10/22 00:14:25;;;;;;;7.93;5.37;;;14.90;99.90;;;;;;5095753;28;20196;-79
2023/10/22 00:16:52;;;;;;;5.97;5.13;;;14.80;99.90;;;;;;5094547;28;20176;-79
2023/10/22 00:19:18;;;;;;;5.20;4.70;;;14.80;99.90;;;;;;5095736;28;20249;-78
2023/10/22 00:21:45;;;;;;;6.47;5.87;;;14.80;99.90;;;;;;5094239;28;20188;-78
2023/10/22 00:24:11;;;;;;;8.07;4.57;;;14.80;99.90;;;;;;5096866;28;20185;-80
2023/10/22 00:26:39;;;;;;;8.93;5.80;;;14.80;99.90;;;;;;5105349;28;20214;-79
2023/10/22 00:29:05;;;;;;;5.13;4.50;;;14.80;99.90;;;;;;5110545;28;20175;-78
2023/10/22 00:31:30;;;;;;;6.27;4.67;;;14.80;99.90;;;;;;5093863;28;20721;-79
2023/10/22 00:33:56;;;;;;;5.10;4.67;;;14.80;99.90;;;;;;5093629;28;20175;-79
2023/10/22 00:36:24;;;;;;;5.43;4.70;;;14.80;99.90;;;;;;5094822;28;20172;-78
2023/10/22 00:38:50;;;;;;;5.70;4.90;;;14.70;99.90;;;;;;5077113;28;20178;-78
2023/10/22 00:41:16;;;;;;;5.50;4.73;;;14.70;99.90;;;;;;5094060;28;20158;-79
2023/10/22 00:43:42;;;;;;;7.83;5.23;;;14.70;99.90;;;;;;5094149;28;20179;-78
2023/10/22 00:46:18;;;;;;;6.53;5.17;;;14.70;99.90;;;;;;5093727;28;20166;-80
2023/10/22 00:48:45;;;;;;;5.33;4.83;;;14.70;99.90;;;;;;5094978;28;20183;-77
2023/10/22 00:51:12;;;;;;;5.73;4.90;;;14.60;99.90;;;;;;5111489;28;20245;-78
2023/10/22 00:53:38;;;;;;;8.67;5.17;;;14.70;99.90;;;;;;5104994;28;20177;-78
2023/10/22 00:56:05;;;;;;;6.33;4.77;;;14.70;99.90;;;;;;5104728;28;20606;-77
2023/10/22 00:58:34;;;;;;;5.23;4.73;;;14.70;99.90;;;;;;5099760;28;20163;-77
2023/10/22 01:01:03;;;;;;;5.77;5.00;;;14.60;99.90;;;;;;5106652;28;20651;-77
2023/10/22 01:03:29;;;;;;;7.17;4.83;;;14.60;99.90;;;;;;5095006;28;20170;-79
2023/10/22 01:05:56;;;;;;;5.40;4.60;;;14.60;99.90;;;;;;5094093;28;20633;-77
2023/10/22 01:08:22;;;;;;;5.30;4.80;;;14.60;99.90;;;;;;5095227;28;20167;-79
2023/10/22 01:10:47;;;;;;;5.93;4.47;;;14.90;99.90;;;;;;5093838;28;20684;-77
2023/10/22 01:13:14;;;;;;;6.70;4.80;;;14.50;99.90;;;;;;5094072;28;20180;-78
2023/10/22 01:15:40;;;;;;;5.63;5.03;;;14.50;99.90;;;;;;5093102;28;20162;-79
2023/10/22 01:18:07;;;;;;;4.90;4.50;;;14.60;99.90;;;;;;5093236;28;20242;-77
2023/10/22 01:20:33;;;;;;;5.30;4.83;;;14.50;99.90;;;;;;5093378;28;20175;-78
2023/10/22 01:23:01;;;;;;;5.00;4.50;;;14.80;99.90;;;;;;5093716;28;20190;-76
2023/10/22 01:25:28;;;;;;;5.60;4.20;;;14.50;99.90;;;;;;5094632;28;20287;-79
2023/10/22 01:27:58;;;;;;;5.20;4.80;;;14.50;99.90;;;;;;5093662;28;20171;-78
2023/10/22 01:30:24;;;;;;;10.60;5.27;;;14.50;99.90;;;;;;5093196;28;20574;-77
2023/10/22 01:32:50;;;;;;;6.20;4.90;;;14.40;99.90;;;;;;5075365;28;20183;-79
2023/10/22 01:35:16;;;;;;;7.67;4.67;;;14.40;99.90;;;;;;5093473;28;20643;-77
2023/10/22 01:37:41;;;;;;;7.20;4.90;;;14.40;99.90;;;;;;5093324;28;20299;-75
2023/10/22 01:40:08;;;;;;;5.40;4.83;;;14.40;99.90;;;;;;5094204;28;20173;-79
2023/10/22 01:42:33;;;;;;;7.13;5.20;;;14.40;99.90;;;;;;5094162;28;20203;-76
2023/10/22 01:44:59;;;;;;;5.70;5.10;;;14.30;99.90;;;;;;5106721;28;20542;-78
2023/10/22 01:47:25;;;;;;;6.80;5.67;;;14.30;99.90;;;;;;5097216;28;20162;-78
2023/10/22 01:49:51;;;;;;;6.73;5.67;;;14.30;99.90;;;;;;5097143;28;20576;-79
2023/10/22 01:52:17;;;;;;;8.27;5.77;;;14.20;99.90;;;;;;5097013;28;20223;-77
2023/10/22 01:54:42;;;;;;;6.00;5.40;;;14.30;99.90;;;;;;5097125;28;20257;-77
2023/10/22 01:57:08;;;;;;;7.80;6.10;;;14.30;99.90;;;;;;5080959;28;20634;-79
2023/10/22 01:59:34;;;;;;;6.60;5.90;;;14.30;99.90;;;;;;5109215;28;20182;-77
2023/10/22 02:01:59;;;;;;;6.60;5.63;;;14.30;99.90;;;;;;5097507;28;20183;-78
2023/10/22 02:04:28;;;;;;;6.57;4.93;;;14.20;99.90;;;;;;5097012;28;20184;-79
2023/10/22 02:06:54;;;;;;;7.13;5.37;;;14.30;99.90;;;;;;5078996;28;20179;-79
2023/10/22 02:09:20;;;;;;;5.27;4.77;;;14.30;99.90;;;;;;5097006;28;20269;-79
2023/10/22 02:11:46;;;;;;;7.27;5.30;;;14.20;99.90;;;;;;5096028;28;20214;-78
2023/10/22 02:14:11;;;;;;;7.23;5.07;;;14.20;99.90;;;;;;5097316;28;20184;-80
2023/10/22 02:16:37;;;;;;;8.93;5.93;;;14.20;99.90;;;;;;5098369;28;20178;-78
2023/10/22 02:19:03;;;;;;;5.80;5.23;;;14.20;99.90;;;;;;5096459;28;20606;-78
2023/10/22 02:21:29;;;;;;;9.77;6.63;;;14.20;99.90;;;;;;5096697;28;20177;-77
2023/10/22 02:23:55;;;;;;;8.13;6.10;;;14.20;99.90;;;;;;5096452;28;20175;-79
2023/10/22 02:26:42;;;;;;;7.43;6.00;;;14.20;99.90;;;;;;5092238;27;20918;-79
2023/10/22 02:29:08;;;;;;;6.93;5.67;;;14.20;99.90;;;;;;5090846;28;20231;-78
2023/10/22 02:31:34;;;;;;;8.73;5.40;;;14.20;99.90;;;;;;5091655;28;20253;-79
2023/10/22 02:34:05;;;;;;;7.23;5.30;;;14.20;99.90;;;;;;5091127;28;20608;-78
2023/10/22 02:36:31;;;;;;;6.07;5.17;;;14.20;99.90;;;;;;5090985;28;20244;-80
2023/10/22 02:38:57;;;;;;;7.70;5.87;;;14.10;99.90;;;;;;5091015;28;20206;-79
2023/10/22 02:41:23;;;;;;;7.20;5.17;;;14.10;99.90;;;;;;5090661;28;20176;-79
2023/10/22 02:43:49;;;;;;;6.40;5.60;;;14.10;99.90;;;;;;5091124;28;20199;-77
2023/10/22 02:46:15;;;;;;;5.63;5.13;;;14.00;99.90;;;;;;5090980;28;20207;-77
2023/10/22 02:48:41;;;;;;;6.07;5.47;;;14.00;99.90;;;;;;5090917;28;20182;-78
2023/10/22 02:51:07;;;;;;;6.10;5.43;;;14.00;99.90;;;;;;5092283;28;20198;-77
2023/10/22 02:53:33;;;;;;;6.37;5.77;;;14.00;99.90;;;;;;5090872;28;20637;-77
2023/10/22 02:56:02;;;;;;;5.60;5.10;;;14.00;99.90;;;;;;5090344;28;20234;-78
2023/10/22 02:58:31;;;;;;;6.07;5.10;;;14.00;99.90;;;;;;5091354;28;20564;-79
2023/10/22 03:01:04;;;;;;;7.50;5.53;;;14.00;99.90;;;;;;5091427;28;20893;-77
2023/10/22 03:03:30;;;;;;;5.70;5.20;;;14.00;99.90;;;;;;5098985;28;20154;-79
2023/10/22 03:05:59;;;;;;;5.20;4.80;;;14.00;99.90;;;;;;5096457;28;20214;-79
2023/10/22 03:08:25;;;;;;;6.37;5.73;;;14.00;99.90;;;;;;5090569;28;20178;-80
2023/10/22 03:10:52;;;;;;;7.30;5.53;;;14.00;99.90;;;;;;5090998;28;20271;-80
2023/10/22 03:13:18;;;;;;;6.77;6.07;;;13.90;99.90;;;;;;5090532;28;20188;-78
2023/10/22 03:15:43;;;;;;;7.60;6.20;;;13.80;99.90;;;;;;5088645;28;20178;-78
2023/10/22 03:18:09;;;;;;;6.73;5.93;;;13.80;99.90;;;;;;5088755;28;20514;-79
2023/10/22 03:20:35;;;;;;;7.57;6.73;;;13.80;99.90;;;;;;5091225;28;20182;-78
2023/10/22 03:23:03;;;;;;;6.97;6.27;;;13.80;99.90;;;;;;5092243;28;20177;-78
2023/10/22 03:25:29;;;;;;;8.60;6.20;;;13.80;99.90;;;;;;5091140;28;20244;-77
2023/10/22 03:27:55;;;;;;;7.60;5.90;;;13.90;99.90;;;;;;5092915;28;20175;-79
2023/10/22 03:30:22;;;;;;;6.63;6.03;;;13.90;99.90;;;;;;5100989;28;20176;-78
2023/10/22 03:32:47;;;;;;;8.00;5.63;;;13.90;99.90;;;;;;5090838;28;20167;-79
2023/10/22 03:35:13;;;;;;;6.97;6.03;;;13.90;99.90;;;;;;5090448;28;20220;-77
2023/10/22 03:37:40;;;;;;;8.37;5.93;;;13.90;99.90;;;;;;5078309;28;20254;-79
2023/10/22 03:40:09;;;;;;;5.93;5.50;;;13.90;99.90;;;;;;5076419;28;20172;-78
2023/10/22 03:42:35;;;;;;;6.13;5.57;;;13.90;99.90;;;;;;5076640;28;20257;-78
2023/10/22 03:45:01;;;;;;;5.73;5.23;;;13.90;99.90;;;;;;5077925;28;20635;-78
2023/10/22 03:47:27;;;;;;;6.23;5.70;;;14.00;99.90;;;;;;5076457;28;20171;-78
2023/10/22 03:49:52;;;;;;;8.40;5.57;;;14.00;99.90;;;;;;5077140;28;20250;-78
2023/10/22 03:52:18;;;;;;;6.33;5.73;;;14.00;99.90;;;;;;5077790;28;20527;-77
2023/10/22 03:54:44;;;;;;;6.63;5.60;;;14.00;99.90;;;;;;5076814;28;20226;-77
2023/10/22 03:57:10;;;;;;;6.40;5.80;;;14.00;99.90;;;;;;5077531;28;20171;-75
2023/10/22 03:59:35;;;;;;;6.70;6.10;;;14.10;99.90;;;;;;5075123;28;20167;-79
2023/10/22 04:02:01;;;;;;;6.10;5.60;;;14.00;99.90;;;;;;5080774;28;20235;-78
2023/10/22 04:04:27;;;;;;;6.30;5.70;;;14.00;99.90;;;;;;5081037;28;20167;-77
2023/10/22 04:06:53;;;;;;;6.23;5.73;;;14.00;99.90;;;;;;5076995;28;20182;-77
2023/10/22 04:09:18;;;;;;;6.33;5.73;;;14.00;99.90;;;;;;5099649;28;20185;-79
2023/10/22 04:11:44;;;;;;;6.80;6.20;;;14.00;99.90;;;;;;5090570;28;20189;-77
2023/10/22 04:14:10;;;;;;;6.90;6.20;;;14.00;99.90;;;;;;5077747;28;20254;-78
2023/10/22 04:16:35;;;;;;;7.00;6.30;;;14.00;99.90;;;;;;5077699;28;20199;-78
2023/10/22 04:19:01;;;;;;;7.53;6.47;;;13.90;99.90;;;;;;5075222;28;20534;-77
2023/10/22 04:21:27;;;;;;;7.07;6.37;;;14.00;99.90;;;;;;5076513;28;20205;-78
2023/10/22 04:23:52;;;;;;;6.53;5.93;;;13.90;99.90;;;;;;5087068;28;20175;-77
2023/10/22 04:26:18;;;;;;;6.83;5.80;;;14.00;99.90;;;;;;5077138;28;20620;-78
2023/10/22 04:28:45;;;;;;;6.80;6.20;;;13.90;99.90;;;;;;5074864;28;20202;-78
2023/10/22 04:31:11;;;;;;;7.30;5.63;;;14.00;99.90;;;;;;5075715;28;20178;-78
2023/10/22 04:33:37;;;;;;;6.60;6.00;;;14.00;99.90;;;;;;5077339;28;20178;-79
2023/10/22 04:36:03;;;;;;;6.20;5.53;;;14.00;99.90;;;;;;5074407;28;20179;-79
2023/10/22 04:38:30;;;;;;;6.60;6.00;;;14.00;99.90;;;;;;5075363;28;20214;-78
2023/10/22 04:40:56;;;;;;;7.27;6.03;;;14.00;99.90;;;;;;5075702;28;20262;-77
2023/10/22 04:43:23;;;;;;;6.07;5.47;;;14.00;99.90;;;;;;5075441;28;20254;-78
2023/10/22 04:45:50;;;;;;;6.87;5.43;;;14.00;99.90;;;;;;5077028;28;20233;-78
2023/10/22 04:48:16;;;;;;;5.87;5.37;;;14.00;99.90;;;;;;5074264;28;20178;-78
2023/10/22 04:50:44;;;;;;;5.97;5.40;;;14.00;99.90;;;;;;5074660;28;20171;-78
2023/10/22 04:53:10;;;;;;;7.00;6.40;;;14.00;99.90;;;;;;5074184;28;20179;-78
2023/10/22 04:55:36;;;;;;;6.10;5.53;;;14.10;99.90;;;;;;5074662;28;20180;-80
2023/10/22 04:58:02;;;;;;;5.33;4.47;;;14.10;99.90;;;;;;5074842;28;20201;-78
2023/10/22 05:00:30;;;;;;;5.80;4.30;;;14.10;99.90;;;;;;5080155;28;20168;-78
2023/10/22 05:02:55;;;;;;;4.57;3.80;;;14.10;99.90;;;;;;5084788;28;20171;-78
2023/10/22 05:05:21;;;;;;;4.07;3.30;;;14.10;99.90;;;;;;5074767;28;20227;-78
2023/10/22 05:07:49;;;;;;;2.70;2.50;;;14.20;99.90;;;;;;5073484;28;20167;-79
2023/10/22 05:10:15;;;;;;;2.77;2.63;;;14.10;99.90;;;;;;5074932;28;20224;-78
2023/10/22 05:12:41;;;;;;;3.13;2.60;;;14.20;99.90;;;;;;5073871;28;20173;-78
2023/10/22 05:15:08;;;;;;;2.90;2.30;;;14.30;99.90;;;;;;5074373;28;20182;-76
2023/10/22 05:17:34;;;;;;;2.30;2.10;;;14.30;99.90;;;;;;5075402;28;20522;-78
2023/10/22 05:20:00;;;;;;;2.23;2.13;;;14.40;99.90;;;;;;5075689;28;20189;-78
2023/10/22 05:22:26;;;;;;;2.40;1.90;;;14.40;99.90;;;;;;5076310;28;20733;-75
2023/10/22 05:24:51;;;;;;;2.40;2.20;;;14.50;99.90;;;;;;5077040;28;20245;-80
2023/10/22 05:27:17;;;;;;;2.30;2.20;;;14.50;99.90;;;;;;5079423;28;20178;-79
2023/10/22 05:29:46;;;;;;;2.10;2.00;;;14.50;99.90;;;;;;5075451;28;20171;-78
2023/10/22 05:32:14;;;;;;;2.10;2.00;;;14.60;99.90;;;;;;5075126;28;20199;-80
2023/10/22 05:34:41;;;;;;;1.90;1.80;;;14.60;99.90;;;;;;5074978;28;20177;-78
2023/10/22 05:37:07;;;;;;;1.67;1.63;;;14.60;99.90;;;;;;5073846;28;20227;-80
2023/10/22 05:39:33;;;;;;;1.80;1.80;;;14.60;99.90;;;;;;5074834;28;20186;-78
2023/10/22 05:41:59;;;;;;;2.30;1.70;;;14.60;99.90;;;;;;5083159;28;20184;-77
2023/10/22 05:44:24;;;;;;;1.57;1.57;;;14.60;99.90;;;;;;5081871;28;20181;-77
2023/10/22 05:46:50;;;;;;;2.40;1.40;;;14.60;99.90;;;;;;5074414;28;20172;-78
2023/10/22 05:49:17;;;;;;;3.97;3.50;;;14.60;99.90;;;;;;5076033;28;20538;-78
2023/10/22 05:51:43;;;;;;;1.90;1.80;;;14.60;99.90;;;;;;5074805;28;20171;-78
2023/10/22 05:54:08;;;;;;;1.90;1.80;;;14.60;99.90;;;;;;5076040;28;20173;-80
2023/10/22 05:56:34;;;;;;;1.90;1.70;;;14.60;99.90;;;;;;5076710;28;20200;-80
2023/10/22 05:59:04;;;;;;;1.43;1.43;;;14.60;99.90;;;;;;5073381;28;20246;-78
2023/10/22 06:01:30;;;;;;;1.50;1.40;;;14.60;99.90;;;;;;5072770;28;20216;-77
2023/10/22 06:03:56;;;;;;;1.40;1.40;;;14.60;99.90;;;;;;5074255;28;20175;-78
2023/10/22 06:06:23;;;;;;;1.57;1.57;;;14.60;99.90;;;;;;5073141;28;20215;-79
2023/10/22 06:08:48;;;;;;;1.10;1.10;;;14.60;99.90;;;;;;5074544;28;20174;-79
2023/10/22 06:11:14;;;;;;;1.80;1.27;;;14.60;99.90;;;;;;5073578;28;20175;-80
2023/10/22 06:13:41;;;;;;;1.07;1.07;;;14.60;99.90;;;;;;5074224;28;20646;-78
2023/10/22 06:16:07;;;;;;;1.30;1.30;;;14.60;99.90;;;;;;5074144;28;20241;-78
2023/10/22 06:18:33;;;;;;;1.10;1.10;;;14.60;99.90;;;;;;5073612;28;20177;-78
2023/10/22 06:20:59;;;;;;;1.70;1.10;;;14.60;99.90;;;;;;5074068;28;20257;-78
2023/10/22 06:23:24;;;;;;;1.73;1.17;;;14.60;99.90;;;;;;5074221;28;20169;-77
2023/10/22 06:25:50;;;;;;;1.30;1.30;;;14.70;99.90;;;;;;5073589;28;20222;-79
2023/10/22 06:28:17;;;;;;;1.10;1.10;;;14.70;99.90;;;;;;5074590;28;20240;-79
2023/10/22 06:30:43;;;;;;;1.23;1.23;;;14.70;99.90;;;;;;5073946;28;20185;-78
2023/10/22 06:33:09;;;;;;;7.13;1.60;;;14.60;99.90;;;;;;5073929;28;20226;-77
2023/10/22 06:35:34;;;;;;;1.00;1.00;;;14.60;99.90;;;;;;5074034;28;20175;-80
2023/10/22 06:38:00;;;;;;;1.30;1.20;;;14.60;99.90;;;;;;5071858;28;20175;-79
2023/10/22 06:40:26;;;;;;;0.97;0.97;;;14.60;99.90;;;;;;5073049;28;20186;-78
2023/10/22 06:42:51;;;;;;;0.77;0.70;;;14.60;99.90;;;;;;5073234;28;20165;-79
2023/10/22 06:45:17;;;;;;;0.63;0.63;;;14.70;99.90;;;;;;5073261;28;20213;-78
2023/10/22 06:47:44;;;;;;;0.80;0.80;;;14.80;99.90;;;;;;5073062;28;20181;-78
2023/10/22 06:50:14;;;;;;;1.03;1.03;;;14.80;99.90;;;;;;5073653;28;20232;-78
2023/10/22 06:52:43;;;;;;;0.70;0.70;;;14.90;99.90;;;;;;5073821;28;20539;-78
2023/10/22 06:55:10;;;;;;;1.23;0.80;;;15.00;99.90;;;;;;5073226;28;20649;-78
2023/10/22 06:57:36;;;;;;;1.37;0.80;;;15.00;99.90;;;;;;5072659;28;20185;-77
2023/10/22 07:00:02;;;;;;;0.97;0.97;;;15.00;99.90;;;;;;5073338;28;20180;-78
2023/10/22 07:02:28;;;;;;;0.87;0.87;;;15.00;99.90;;;;;;5077227;28;20188;-77
2023/10/22 07:04:55;;;;;;;0.73;0.73;;;15.00;99.90;;;;;;5073152;28;20206;-79
2023/10/22 07:07:22;;;;;;;2.33;0.60;;;15.00;99.90;;;;;;5074111;28;20922;-80
2023/10/22 07:09:48;;;;;;;0.67;0.67;;;15.00;99.90;;;;;;5074381;28;20245;-78
2023/10/22 07:12:14;;;;;;;0.50;0.50;;;15.10;99.90;;;;;;5076402;28;20251;-79
2023/10/22 07:14:40;;;;;;;0.57;0.57;;;15.10;99.90;;;;;;5077595;28;20197;-78
2023/10/22 07:17:06;;;;;;;0.50;0.50;;;15.20;99.90;;;;;;5077241;28;20527;-78
2023/10/22 07:19:31;;;;;;;0.60;0.60;;;15.20;99.90;;;;;;5078016;28;20183;-78
2023/10/22 07:21:57;;;;;;;0.70;0.70;;;15.30;99.90;;;;;;5079774;28;20186;-80
2023/10/22 07:24:23;;;;;;;0.40;0.40;;;15.30;99.90;;;;;;5087541;28;20197;-79
2023/10/22 07:26:49;;;;;;;0.60;0.60;;;15.40;99.90;;;;;;5078578;28;20181;-77
2023/10/22 07:29:15;;;;;;;0.63;0.63;;;15.50;99.90;;;;;;5077549;28;20174;-78
2023/10/22 07:31:43;;;;;;;0.50;0.50;;;15.60;99.90;;;;;;5077490;28;20177;-79
2023/10/22 07:34:10;;;;;;;0.50;0.50;;;15.60;99.90;;;;;;5077055;28;20668;-78
2023/10/22 07:36:35;;;;;;;0.57;0.50;;;15.70;99.90;;;;;;5076267;28;20642;-78
2023/10/22 07:39:01;;;;;;;0.60;0.60;;;15.70;99.90;;;;;;5077240;28;20175;-77
2023/10/22 07:41:27;;;;;;;0.50;0.50;;;15.70;99.90;;;;;;5076944;28;20172;-78
2023/10/22 07:43:53;;;;;;;0.50;0.50;;;15.80;99.90;;;;;;5076639;28;20175;-78
2023/10/22 07:46:19;;;;;;;0.80;0.80;;;15.80;99.90;;;;;;5077254;28;20709;-77
2023/10/22 07:48:45;;;;;;;0.20;0.20;;;15.80;99.90;;;;;;5077480;28;20172;-79
2023/10/22 07:51:18;;;;;;;0.60;0.60;;;15.90;99.90;;;;;;5076346;28;20207;-77
2023/10/22 07:53:46;;;;;;;0.30;0.30;;;15.90;99.90;;;;;;5076380;28;20164;-78
2023/10/22 07:56:14;;;;;;;0.40;0.40;;;15.90;99.90;;;;;;5077075;28;20225;-78
2023/10/22 07:58:40;;;;;;;0.70;0.50;;;16.00;99.90;;;;;;5075312;28;20583;-78
2023/10/22 08:01:06;;;;;;;0.40;0.40;;;16.10;99.90;;;;;;5075457;28;20178;-78
2023/10/22 08:03:32;;;;;;;0.40;0.40;;;16.20;99.90;;;;;;5076561;28;20568;-77
2023/10/22 08:05:59;;;;;;;0.27;0.27;;;16.20;99.90;;;;;;5076360;28;20213;-77
2023/10/22 08:08:25;;;;;;;0.27;0.27;;;16.20;99.90;;;;;;5081446;28;20195;-78
2023/10/22 08:10:55;;;;;;;0.33;0.30;;;16.20;99.90;;;;;;5080153;28;20183;-77
2023/10/22 08:13:20;;;;;;;0.20;0.20;;;16.30;99.90;;;;;;5077472;28;20172;-78
2023/10/22 08:15:47;;;;;;;0.27;0.27;;;16.30;99.90;;;;;;5076121;28;20163;-76
2023/10/22 08:18:13;;;;;;;0.20;0.20;;;16.30;99.90;;;;;;5076206;28;20176;-78
2023/10/22 08:20:38;;;;;;;0.20;0.20;;;16.30;99.90;;;;;;5076443;28;20175;-77
2023/10/22 08:23:04;;;;;;;0.83;0.83;;;16.30;99.90;;;;;;5090469;28;20235;-75
2023/10/22 08:25:30;;;;;;;22.07;16.67;;;16.40;99.90;;;;;;5078465;28;20273;-77
2023/10/22 08:27:56;;;;;;;6.20;5.70;;;16.40;99.90;;;;;;5075640;28;20649;-77
2023/10/22 08:30:22;;;;;;;0.33;0.33;;;16.50;99.90;;;;;;5075763;28;20187;-77
2023/10/22 08:32:48;;;;;;;0.50;0.50;;;16.50;99.90;;;;;;5074598;28;20191;-76
2023/10/22 08:35:14;;;;;;;0.40;0.40;;;16.50;99.90;;;;;;5078280;28;20175;-76
2023/10/22 08:37:41;;;;;;;0.10;0.10;;;16.50;99.90;;;;;;5085048;28;20179;-76
2023/10/22 08:40:08;;;;;;;0.40;0.33;;;16.60;99.90;;;;;;5081781;28;20169;-77
2023/10/22 08:42:35;;;;;;;0.30;0.30;;;16.50;99.90;;;;;;5075066;28;20179;-77
2023/10/22 08:45:02;;;;;;;0.40;0.40;;;16.60;99.90;;;;;;5074956;28;20225;-78
2023/10/22 08:47:31;;;;;;;0.30;0.30;;;16.60;99.90;;;;;;5075110;28;20187;-79
2023/10/22 08:49:58;;;;;;;0.47;0.47;;;16.70;99.90;;;;;;5074918;28;20171;-77
2023/10/22 08:52:24;;;;;;;0.20;0.20;;;16.80;99.90;;;;;;5075262;28;20206;-77
2023/10/22 08:54:51;;;;;;;0.30;0.30;;;17.80;99.90;;;;;;5075283;28;20689;-77
2023/10/22 08:57:20;;;;;;;0.20;0.20;;;16.80;99.90;;;;;;5075940;28;20171;-77
2023/10/22 08:59:47;;;;;;;0.20;0.20;;;16.90;99.90;;;;;;5076100;28;20258;-76
2023/10/22 09:02:21;;;;;;;0.20;0.20;;;16.90;99.90;;;;;;5074750;28;20175;-76
2023/10/22 09:04:47;;;;;;;0.50;0.50;;;17.00;99.90;;;;;;5074452;28;20642;-77
2023/10/22 09:07:13;;;;;;;0.17;0.17;;;17.10;99.90;;;;;;5074356;28;20266;-77
2023/10/22 09:09:40;;;;;;;0.40;0.40;;;17.20;99.90;;;;;;5075164;28;20254;-76
2023/10/22 09:12:10;;;;;;;0.33;0.33;;;17.20;99.90;;;;;;5074563;28;20173;-78
2023/10/22 09:14:37;;;;;;;0.23;0.23;;;17.30;99.90;;;;;;5073623;28;20167;-76
2023/10/22 09:17:16;;;;;;;0.30;0.30;;;17.40;99.90;;;;;;5075551;28;20184;-78
2023/10/22 09:19:47;;;;;;;0.60;0.60;;;17.50;99.90;;;;;;5075622;28;20289;-79
2023/10/22 09:22:26;;;;;;;0.43;0.43;;;17.50;99.90;;;;;;5075804;28;20186;-78
2023/10/22 09:24:56;;;;;;;0.20;0.20;;;17.60;99.90;;;;;;5087612;28;20323;-78
2023/10/22 09:27:27;;;;;;;0.37;0.37;;;17.60;99.90;;;;;;5075911;28;20214;-77
2023/10/22 09:29:53;;;;;;;0.20;0.20;;;17.50;99.90;;;;;;5076622;28;20175;-77
2023/10/22 09:32:20;;;;;;;0.30;0.30;;;17.50;99.90;;;;;;5086798;28;20157;-76
2023/10/22 09:34:46;;;;;;;0.40;0.40;;;17.40;99.90;;;;;;5092402;28;20177;-79
2023/10/22 09:37:11;;;;;;;0.20;0.20;;;17.50;99.90;;;;;;5080888;28;20254;-77
2023/10/22 09:39:45;;;;;;;0.30;0.30;;;17.20;99.90;;;;;;5075472;28;20202;-77
2023/10/22 09:42:12;;;;;;;0.30;0.30;;;17.40;99.90;;;;;;5080332;28;20175;-77
2023/10/22 09:44:40;;;;;;;0.30;0.30;;;17.40;99.90;;;;;;5086267;28;20182;-78
2023/10/22 09:47:07;;;;;;;0.20;0.20;;;17.30;99.90;;;;;;5084204;28;20174;-76
2023/10/22 09:49:35;;;;;;;0.20;0.13;;;17.30;99.90;;;;;;5073285;28;20213;-77
2023/10/22 09:52:06;;;;;;;0.20;0.20;;;17.30;99.90;;;;;;5074914;28;20205;-76
2023/10/22 09:54:39;;;;;;;0.20;0.20;;;17.30;99.90;;;;;;5073491;28;20684;-76
2023/10/22 09:57:08;;;;;;;0.20;0.20;;;17.30;99.90;;;;;;5073631;28;20216;-76
2023/10/22 09:59:34;;;;;;;0.20;0.20;;;17.40;99.90;;;;;;5072807;28;20166;-78
2023/10/22 10:02:01;;;;;;;0.20;0.20;;;17.40;99.90;;;;;;5071785;28;20188;-75
2023/10/22 10:04:28;;;;;;;0.90;0.90;;;17.50;99.90;;;;;;5072836;28;20171;-78
2023/10/22 10:06:54;;;;;;;1.53;1.47;;;17.50;99.90;;;;;;5073569;28;20179;-78
2023/10/22 10:09:23;;;;;;;3.00;2.77;;;17.50;99.90;;;;;;5073811;28;20197;-77
2023/10/22 10:11:50;;;;;;;0.63;0.63;;;17.50;99.90;;;;;;5079758;28;20178;-75
2023/10/22 10:14:38;;;;;;;0.30;0.30;;;17.40;99.90;;;;;;5074479;28;20190;-77
2023/10/22 10:17:04;;;;;;;0.20;0.20;;;17.50;99.90;;;;;;5073672;28;20208;-76
2023/10/22 10:19:31;;;;;;;0.30;0.30;;;17.50;99.90;;;;;;5073335;28;20254;-76
2023/10/22 10:21:57;;;;;;;3.13;0.40;;;17.50;99.90;;;;;;5073777;28;20170;-75
2023/10/22 10:24:24;;;;;;;0.30;0.30;;;17.50;99.90;;;;;;5073999;28;20171;-77
2023/10/22 10:27:12;;;;;;;0.30;0.30;;;17.50;99.90;;;;;;5073862;28;20197;-76
2023/10/22 10:29:39;;;;;;;0.20;0.20;;;17.60;99.80;;;;;;5073822;28;20185;-76
2023/10/22 10:32:14;;;;;;;0.30;0.30;;;17.60;99.70;;;;;;5073568;28;20186;-77
2023/10/22 10:34:43;;;;;;;0.30;0.30;;;17.60;99.60;;;;;;5073633;28;20189;-78
2023/10/22 10:37:17;;;;;;;0.20;0.20;;;17.70;99.60;;;;;;5073265;28;20178;-77
2023/10/22 10:39:51;;;;;;;0.20;0.20;;;17.70;99.50;;;;;;5073070;28;20171;-78
2023/10/22 10:42:29;;;;;;;0.20;0.20;;;17.80;99.40;;;;;;5073590;28;20163;-78
2023/10/22 10:44:54;;;;;;;0.20;0.20;;;17.80;99.30;;;;;;5071585;28;20910;-75
2023/10/22 10:47:20;;;;;;;0.37;0.37;;;17.80;99.20;;;;;;5075231;28;20265;-76
2023/10/22 10:50:11;;;;;;;0.10;0.10;;;18.00;99.20;;;;;;5077156;28;20569;-76
2023/10/22 10:52:45;;;;;;;0.20;0.20;;;18.00;99.10;;;;;;5078128;28;20169;-78
2023/10/22 10:55:29;;;;;;;0.20;0.20;;;18.00;99.00;;;;;;5078148;28;20166;-77
2023/10/22 10:57:55;;;;;;;0.20;0.20;;;18.00;98.80;;;;;;5076780;28;20289;-78
2023/10/22 11:00:32;;;;;;;0.63;0.63;;;18.10;98.80;;;;;;5079395;28;20526;-78
2023/10/22 11:03:03;;;;;;;1.20;0.43;;;18.10;99.00;;;;;;5088046;28;20175;-79
2023/10/22 11:05:40;;;;;;;0.10;0.10;;;18.00;98.50;;;;;;5077553;28;20658;-77
2023/10/22 11:08:12;;;;;;;0.30;0.30;;;17.90;98.50;;;;;;5077615;28;20167;-77
2023/10/22 11:10:38;;;;;;;0.10;0.10;;;17.90;98.80;;;;;;5078010;28;20167;-76
2023/10/22 11:13:06;;;;;;;0.23;0.23;;;17.90;98.60;;;;;;5077032;28;20174;-76
2023/10/22 11:15:36;;;;;;;0.17;0.17;;;17.90;98.30;;;;;;5076955;28;20176;-77
2023/10/22 11:18:07;;;;;;;0.20;0.20;;;17.90;98.40;;;;;;5077727;28;20165;-76
2023/10/22 11:20:34;;;;;;;0.30;0.30;;;17.90;98.40;;;;;;5080503;28;20205;-75
2023/10/22 11:23:00;;;;;;;0.30;0.30;;;17.90;98.30;;;;;;5081817;28;20182;-75
2023/10/22 11:25:28;;;;;;;0.20;0.20;;;17.90;98.00;;;;;;5084412;28;20241;-76
2023/10/22 11:27:54;;;;;;;0.20;0.20;;;17.90;98.30;;;;;;5077210;28;20170;-77
2023/10/22 11:30:34;;;;;;;0.17;0.17;;;17.90;97.90;;;;;;5076645;28;20167;-76
2023/10/22 11:33:00;;;;;;;0.10;0.10;;;17.90;98.10;;;;;;5077440;28;20166;-75
2023/10/22 11:35:30;;;;;;;0.90;0.30;;;17.90;98.10;;;;;;5077063;28;20175;-77
2023/10/22 11:37:57;;;;;;;0.23;0.20;;;17.90;98.10;;;;;;5077090;28;20190;-77
2023/10/22 11:40:35;;;;;;;16.27;11.10;;;17.90;97.70;;;;;;5076757;28;20179;-75
2023/10/22 11:43:14;;;;;;;4.03;3.70;;;17.90;98.00;;;;;;5076366;28;20622;-77
2023/10/22 11:45:50;;;;;;;1.33;1.33;;;17.90;99.20;;;;;;5075865;28;20706;-76
2023/10/22 11:48:18;;;;;;;1.20;1.13;;;17.90;99.50;;;;;;5076400;28;20174;-76
2023/10/22 11:50:48;;;;;;;2.20;0.53;;;18.00;99.80;;;;;;5076310;28;20171;-76
2023/10/22 11:53:15;;;;;;;1.23;0.50;;;18.00;99.90;;;;;;5076640;28;20180;-77
2023/10/22 11:55:41;;;;;;;0.40;0.40;;;18.00;99.50;;;;;;5078202;28;20170;-76
2023/10/22 11:58:20;;;;;;;0.87;0.57;;;18.00;99.20;;;;;;5076672;28;20179;-76
2023/10/22 12:00:46;;;;;;;1.27;1.27;;;18.10;99.10;;;;;;5078193;28;20159;-77
2023/10/22 12:03:12;;;;;;;1.00;1.00;;;18.10;99.30;;;;;;5075950;28;20927;-77
2023/10/22 12:05:38;;;;;;;0.60;0.60;;;18.10;99.30;;;;;;5075549;28;20238;-76
2023/10/22 12:08:04;;;;;;;1.00;1.00;;;18.10;99.40;;;;;;5075794;28;20250;-77
2023/10/22 12:10:30;;;;;;;1.00;1.00;;;18.00;99.90;;;;;;5075611;28;20167;-77
2023/10/22 12:12:56;;;;;;;1.00;1.00;;;18.00;99.90;;;;;;5075881;28;20930;-78
2023/10/22 12:15:21;;;;;;;0.63;0.63;;;17.90;99.90;;;;;;5076432;28;20175;-76
2023/10/22 12:17:47;;;;;;;0.50;0.50;;;17.90;99.90;;;;;;5075894;28;20942;-76
2023/10/22 12:20:13;;;;;;;0.60;0.60;;;17.80;99.90;;;;;;5075515;28;20209;-78
2023/10/22 12:22:39;;;;;;;0.40;0.40;;;17.80;99.80;;;;;;5084836;28;20205;-78
2023/10/22 12:25:06;;;;;;;0.53;0.50;;;17.80;99.80;;;;;;5080462;28;20230;-78
2023/10/22 12:27:32;;;;;;;1.67;0.40;;;17.80;99.90;;;;;;5075948;28;20175;-76
2023/10/22 12:29:58;;;;;;;0.30;0.30;;;17.90;99.90;;;;;;5074575;28;20179;-76
2023/10/22 12:32:24;;;;;;;0.30;0.30;;;17.90;99.90;;;;;;5075500;28;20184;-77
2023/10/22 12:34:50;;;;;;;0.77;0.77;;;18.00;99.90;;;;;;5075707;28;20195;-77
2023/10/22 12:37:16;;;;;;;0.50;0.50;;;18.10;99.90;;;;;;5074804;28;20183;-76
2023/10/22 12:39:42;;;;;;;0.60;0.60;;;18.10;99.90;;;;;;5075182;28;20549;-77
2023/10/22 12:42:08;;;;;;;0.50;0.50;;;18.20;99.90;;;;;;5075279;28;20170;-77
2023/10/22 12:44:34;;;;;;;0.20;0.20;;;18.30;99.80;;;;;;5075187;28;20216;-76
2023/10/22 12:47:00;;;;;;;0.40;0.40;;;18.50;99.60;;;;;;5075381;28;20183;-75